Latest Weather Observations for Mackay

IDQ60801

Issued at 11:32 pm EST Saturday 28 May 2016 (issued every 30 minutes, with the page automatically refreshed every 10 minutes)

About weather observations | Map of weather stations | Latest weather observations for QLD | Other Formats
Station Details ID: 033119 Name: MACKAY M.O Lat: -21.12 Lon: 149.22 Height: 30.26 m
Data from the previous 72 hours. | See also: Recent months at Mackay
Date/Time
EST
Temp
°C
App
Temp
°C
Dew
Point
Rel
Hum
%
Delta-T
°C
Wind Press
QNH
hPa
Press
MSL
hPa
Rain
since 9 am
mm
Dir
 
Spd
km/h
Gust
km/h
Spd
kts
Gust
kts
28/11:30pm 20.1 20.9 18.2 89 1.2 SW 11 13 6 7 1015.9 1015.7 0.0
28/11:00pm 20.6 21.4 18.2 86 1.5 WSW 11 13 6 7 1016.0 1015.8 0.0
28/10:30pm 21.0 22.1 17.9 82 1.9 WSW 9 11 5 6 1016.0 1015.8 0.0
28/10:00pm 20.9 22.1 18.2 84 1.7 WSW 9 11 5 6 1016.0 1015.8 0.0
28/09:30pm 21.2 22.4 18.3 83 1.8 WSW 9 11 5 6 1015.9 1015.7 0.0
28/09:00pm 22.3 24.2 18.5 79 2.4 WNW 6 9 3 5 1015.7 1015.5 0.0
28/08:30pm 22.9 26.1 18.8 77 2.6 CALM 0 0 0 0 1015.6 1015.4 0.0
28/08:00pm 22.9 24.9 18.8 77 2.6 NE 6 7 3 4 1015.5 1015.3 0.0
28/07:30pm 23.4 25.2 18.3 73 3.2 ENE 6 9 3 5 1015.3 1015.1 0.0
28/07:00pm 23.1 24.9 18.7 76 2.8 ENE 7 9 4 5 1014.9 1014.7 0.0
28/06:30pm 22.9 24.8 18.6 77 2.7 ENE 6 7 3 4 1014.4 1014.2 0.0
28/06:00pm 22.7 24.4 18.4 76 2.7 NE 7 11 4 6 1014.0 1013.8 0.0
28/05:30pm 23.4 25.0 18.3 73 3.2 NE 7 11 4 6 1013.8 1013.6 0.0
28/05:00pm 24.6 26.3 18.1 67 4.1 NE 6 13 3 7 1013.7 1013.5 0.0
28/04:30pm 25.7 26.8 18.1 63 4.8 NNE 9 15 5 8 1013.4 1013.2 0.0
28/04:00pm 26.4 27.6 18.2 60 5.2 NNE 9 17 5 9 1013.3 1013.1 0.0
28/03:30pm 26.5 27.3 18.1 60 5.3 NE 11 17 6 9 1013.2 1013.0 0.0
28/03:00pm 26.8 27.4 17.8 57 5.7 NE 11 20 6 11 1013.1 1012.9 0.0
28/02:30pm 27.7 28.0 17.0 52 6.7 NNE 11 20 6 11 1013.3 1013.1 0.0
28/02:00pm 27.9 28.5 16.7 50 7.0 NNE 9 19 5 10 1013.4 1013.2 0.0
28/01:30pm 27.0 26.9 16.1 51 6.7 NE 11 19 6 10 1013.6 1013.4 0.0
28/01:00pm 26.4 26.2 15.6 51 6.6 NE 11 17 6 9 1013.8 1013.6 0.0
28/12:30pm 26.2 25.8 15.3 51 6.6 ENE 11 19 6 10 1014.1 1013.9 0.0
28/12:00pm 26.0 26.0 15.1 51 6.6 ENE 9 13 5 7 1014.5 1014.3 0.0
28/11:30am 25.2 24.6 14.7 52 6.3 E 11 15 6 8 1014.9 1014.7 0.0
28/11:00am 24.8 24.5 14.3 52 6.2 ESE 9 13 5 7 1015.3 1015.1 0.0
28/10:30am 24.7 24.4 14.4 52 6.1 ESE 9 13 5 7 1015.6 1015.4 0.0
28/10:00am 24.4 23.9 12.6 47 6.8 SE 7 11 4 6 1016.1 1015.9 0.0
28/09:30am 25.5 25.5 13.6 47 7.0 ENE 6 9 3 5 1016.1 1015.9 0.0
28/09:00am 24.5 25.4 14.0 52 6.2 SSW 2 7 1 4 1016.0 1015.8 0.0
28/08:30am 23.0 24.3 14.1 57 5.2 CALM 0 0 0 0 1016.0 1015.8 0.0
28/08:00am 21.9 22.0 14.0 61 4.6 SW 6 7 3 4 1015.7 1015.5 0.0
28/07:30am 21.0 19.9 11.9 56 5.1 WSW 9 9 5 5 1015.4 1015.2 0.0
28/07:00am 20.2 19.6 12.2 60 4.5 W 7 11 4 6 1014.9 1014.7 0.0
28/06:30am 19.6 19.9 13.3 67 3.6 WNW 4 9 2 5 1014.8 1014.6 0.0
28/06:00am 19.5 19.4 13.9 70 3.2 W 7 9 4 5 1014.6 1014.4 0.0
28/05:30am 20.0 19.6 15.1 73 2.9 SW 11 13 6 7 1014.3 1014.1 0.0
28/05:00am 19.7 19.0 14.4 71 3.1 SW 11 15 6 8 1014.0 1013.8 0.0
28/04:30am 20.0 19.4 14.7 71 3.1 SSW 11 17 6 9 1013.7 1013.5 0.0
28/04:00am 20.1 19.9 15.7 76 2.6 SSW 11 15 6 8 1013.4 1013.2 0.0
28/03:30am 20.6 20.4 15.7 73 2.9 SW 11 15 6 8 1013.3 1013.1 0.0
28/03:00am 20.9 20.8 16.1 74 2.9 SW 11 15 6 8 1013.2 1013.0 0.0
28/02:30am 22.0 21.2 16.0 68 3.6 SSW 15 20 8 11 1013.1 1012.9 0.0
28/02:00am 22.4 20.8 16.1 67 3.8 S 19 24 10 13 1012.8 1012.6 0.0
28/01:30am 22.0 24.4 20.9 93 0.7 SSE 9 15 5 8 1013.0 1012.8 0.0
28/01:00am 22.4 25.6 21.6 95 0.5 S 7 11 4 6 1012.9 1012.7 0.0
28/12:30am 22.7 27.0 21.9 95 0.5 SW 2 9 1 5 1012.5 1012.3 0.0
28/12:00am 23.1 26.5 22.0 93 0.7 S 7 15 4 8 1012.5 1012.3 0.0
 
Date/Time
EST
Temp
°C
App
Temp
°C
Dew
Point
Rel
Hum
%
Delta-T
°C
Wind Press
QNH
hPa
Press
MSL
hPa
Rain
since 9 am
mm
Dir
 
Spd
km/h
Gust
km/h
Spd
kts
Gust
kts
27/11:30pm 23.5 26.4 22.5 94 0.7 NW 11 15 6 8 1011.8 1011.6 0.0
27/11:00pm 23.8 26.4 22.6 93 0.8 NW 13 20 7 11 1011.7 1011.5 0.0
27/10:30pm 24.1 26.3 22.6 91 1.0 NW 15 24 8 13 1011.8 1011.6 0.0
27/10:00pm 24.5 25.9 22.6 89 1.3 NNW 19 28 10 15 1011.7 1011.5 0.0
27/09:30pm 24.6 25.9 22.4 87 1.5 NNW 19 28 10 15 1011.6 1011.4 0.0
27/09:00pm 24.5 25.6 22.0 86 1.7 NNW 19 28 10 15 1011.7 1011.5 0.0
27/08:30pm 24.5 26.7 22.6 89 1.3 NNW 15 22 8 12 1011.6 1011.4 0.0
27/08:00pm 24.7 26.7 22.9 90 1.2 NNW 17 26 9 14 1011.4 1011.2 0.0
27/07:30pm 24.9 27.5 23.3 91 1.1 NNW 15 24 8 13 1011.3 1011.1 0.0
27/07:00pm 24.9 27.1 23.3 91 1.1 N 17 24 9 13 1010.7 1010.6 0.0
27/06:30pm 25.0 27.2 23.2 90 1.2 N 17 28 9 15 1010.4 1010.3 0.0
27/06:00pm 25.1 26.8 23.0 88 1.4 N 19 30 10 16 1010.1 1010.0 0.0
27/05:30pm 25.3 26.7 22.9 86 1.6 N 20 32 11 17 1009.9 1009.8 0.0
27/05:00pm 26.0 27.3 22.6 81 2.3 N 20 39 11 21 1009.5 1009.4 0.0
27/04:30pm 26.5 27.0 22.7 79 2.6 N 24 35 13 19 1009.3 1009.2 0.0
27/04:00pm 27.1 27.5 22.5 76 3.1 N 24 41 13 22 1009.1 1009.0 0.0
27/03:30pm 27.4 27.9 22.7 75 3.2 N 24 41 13 22 1008.9 1008.8 0.0
27/03:00pm 28.2 29.0 22.5 71 3.9 N 22 37 12 20 1008.9 1008.8 0.0
27/02:30pm 28.6 29.9 22.6 70 4.1 N 20 32 11 17 1009.2 1009.1 0.0
27/02:00pm 29.2 30.5 22.4 66 4.6 N 19 32 10 17 1009.7 1009.6 0.0
27/01:30pm 29.6 31.0 22.6 66 4.8 N 19 33 10 18 1009.8 1009.7 0.0
27/01:00pm 29.5 29.7 22.1 64 5.0 N 24 41 13 22 1010.1 1010.0 0.0
27/12:30pm 29.3 29.8 21.9 64 5.0 N 22 33 12 18 1010.7 1010.6 0.0
27/12:00pm 28.7 29.3 21.4 64 4.9 NNW 20 33 11 18 1011.4 1011.2 0.0
27/11:30am 29.4 30.9 22.0 64 5.0 NNW 17 28 9 15 1012.0 1011.8 0.0
27/11:00am 28.1 28.0 20.7 64 4.9 NNW 22 33 12 18 1012.4 1012.2 0.0
27/10:30am 27.6 27.4 20.6 65 4.6 NNW 22 37 12 20 1012.9 1012.7 0.0
27/10:00am 27.2 27.5 20.7 67 4.3 NNW 20 35 11 19 1013.2 1013.0 0.0
27/09:30am 26.2 26.0 20.6 71 3.7 NNW 22 39 12 21 1013.5 1013.3 0.0
27/09:00am 25.6 25.0 20.4 73 3.4 NW 24 35 13 19 1013.5 1013.3 0.0
27/08:30am 24.8 24.5 20.4 76 2.9 NNW 22 32 12 17 1013.5 1013.3 0.0
27/08:00am 24.0 24.4 20.6 81 2.2 NNW 19 35 10 19 1013.4 1013.2 0.0
27/07:30am 23.0 24.1 20.5 86 1.6 NNW 15 24 8 13 1013.2 1013.0 0.0
27/07:00am 22.0 23.3 20.8 93 0.8 NNW 15 24 8 13 1012.8 1012.6 0.0
27/06:30am 21.9 24.3 20.8 93 0.7 NW 9 15 5 8 1012.7 1012.5 0.0
27/06:00am 21.8 23.8 20.7 93 0.7 NW 11 17 6 9 1012.4 1012.2 0.0
27/05:30am 21.6 23.1 20.5 93 0.7 NNW 13 20 7 11 1012.2 1012.0 0.0
27/05:00am 21.3 23.4 20.2 93 0.7 NW 9 13 5 7 1012.0 1011.8 0.0
27/04:30am 21.3 22.6 20.1 93 0.8 NNW 13 19 7 10 1012.0 1011.8 0.0
27/04:00am 20.8 22.3 19.7 93 0.7 NNW 11 17 6 9 1012.0 1011.8 0.0
27/03:30am 20.9 22.4 19.8 93 0.7 NNW 11 15 6 8 1012.1 1011.9 0.0
27/03:00am 20.7 22.1 19.6 93 0.7 NW 11 15 6 8 1012.2 1012.0 0.0
27/02:30am 20.7 22.2 19.8 95 0.6 NW 11 17 6 9 1012.5 1012.3 0.0
27/02:00am 21.0 22.6 19.9 93 0.7 NW 11 15 6 8 1012.7 1012.5 0.0
27/01:30am 21.3 23.8 20.2 93 0.7 NW 7 11 4 6 1012.8 1012.6 0.0
27/01:00am 21.5 24.0 20.3 93 0.8 NW 7 9 4 5 1013.2 1013.0 0.0
27/12:30am 22.2 24.3 20.2 88 1.3 WNW 9 13 5 7 1013.3 1013.1 0.0
27/12:00am 22.4 24.6 20.4 88 1.3 NW 9 11 5 6 1013.2 1013.0 0.0
 
Date/Time
EST
Temp
°C
App
Temp
°C
Dew
Point
Rel
Hum
%
Delta-T
°C
Wind Press
QNH
hPa
Press
MSL
hPa
Rain
since 9 am
mm
Dir
 
Spd
km/h
Gust
km/h
Spd
kts
Gust
kts
26/11:30pm 22.6 24.0 20.4 87 1.4 NNW 13 17 7 9 1013.3 1013.1 0.0
26/11:00pm 22.7 24.3 20.7 88 1.3 NNW 13 19 7 10 1013.5 1013.3 0.0
26/10:30pm 22.8 24.7 20.6 87 1.4 N 11 13 6 7 1013.7 1013.5 0.0
26/10:00pm 22.9 24.7 20.4 86 1.6 N 11 15 6 8 1014.0 1013.8 0.0
26/09:30pm 22.9 24.7 20.4 86 1.6 N 11 17 6 9 1014.3 1014.1 0.0
26/09:00pm 23.0 24.8 20.4 85 1.7 N 11 17 6 9 1014.5 1014.3 0.0
26/08:30pm 23.0 24.9 20.5 86 1.6 N 11 17 6 9 1014.5 1014.3 0.0
26/08:00pm 23.0 25.2 20.4 85 1.7 N 9 13 5 7 1014.4 1014.2 0.0
26/07:30pm 23.1 25.3 20.3 84 1.8 N 9 15 5 8 1014.2 1014.0 0.0
26/07:00pm 23.0 25.1 20.1 84 1.9 N 9 13 5 7 1013.9 1013.7 0.0
26/06:30pm 22.9 25.5 20.4 86 1.6 N 7 11 4 6 1013.6 1013.4 0.0
26/06:00pm 23.2 25.3 20.1 83 2.0 N 9 15 5 8 1013.1 1012.9 0.0
26/05:30pm 23.7 25.4 20.1 80 2.3 N 11 19 6 10 1012.8 1012.6 0.0
26/05:00pm 24.5 26.3 20.4 78 2.7 N 11 19 6 10 1012.5 1012.3 0.0
26/04:30pm 25.5 27.4 20.5 74 3.3 NNE 11 20 6 11 1012.3 1012.1 0.0
26/04:00pm 26.3 28.2 20.5 70 3.8 NNE 11 19 6 10 1012.5 1012.3 0.0
26/03:30pm 27.0 29.0 20.8 69 4.1 NNE 11 22 6 12 1012.8 1012.6 0.0
26/03:06pm 27.4 29.5 20.9 67 4.3 NNE 11 20 6 11 1013.0 1012.8 0.0
26/03:00pm 27.7 29.8 20.9 66 4.5 NNE 11 20 6 11 1013.1 1012.9 0.0
26/02:30pm 28.0 29.7 20.1 62 5.2 N 11 20 6 11 1013.4 1013.2 0.0
26/02:00pm 27.6 28.6 19.4 61 5.3 NNE 13 20 7 11 1013.8 1013.6 0.0
26/01:30pm 28.0 29.0 19.5 60 5.5 N 13 20 7 11 1014.3 1014.1 0.0
26/01:00pm 28.4 30.0 20.0 60 5.5 NNE 11 22 6 12 1014.8 1014.6 0.0
26/12:30pm 28.2 29.7 19.8 60 5.5 N 11 19 6 10 1015.2 1015.0 0.0
26/12:00pm 27.6 30.0 20.8 66 4.5 NNE 9 17 5 9 1015.7 1015.5 0.0
26/11:30am 26.4 29.0 20.4 69 3.9 NNE 7 15 4 8 1016.1 1015.9 0.0
26/11:00am 26.1 29.0 20.6 71 3.6 N 6 13 3 7 1016.5 1016.3 0.0
26/10:30am 26.8 29.4 20.4 68 4.2 NE 7 17 4 9 1016.7 1016.5 0.0
26/10:00am 25.5 29.0 20.4 73 3.3 ESE 2 9 1 5 1016.9 1016.7 0.0
26/09:30am 24.0 26.6 20.0 78 2.6 WSW 6 9 3 5 1017.0 1016.8 0.0
26/09:00am 22.5 24.8 19.9 85 1.7 SW 7 11 4 6 1017.1 1016.9 0.2
26/08:30am 21.1 22.4 19.4 90 1.1 SW 11 17 6 9 1017.0 1016.8 0.2
26/08:00am 19.9 20.8 18.3 90 1.0 WSW 11 15 6 8 1016.8 1016.6 0.2
26/07:30am 19.1 20.0 18.3 95 0.5 SW 11 17 6 9 1016.7 1016.5 0.2
26/07:00am 18.6 18.9 17.9 96 0.4 SW 13 17 7 9 1016.4 1016.2 0.2
26/06:30am 18.6 19.0 18.1 97 0.3 WSW 13 15 7 8 1016.2 1016.0 0.0
26/06:00am 18.6 18.9 17.9 96 0.4 WSW 13 15 7 8 1015.9 1015.7 0.0
26/05:30am 18.7 19.5 18.2 97 0.3 WSW 11 17 6 9 1015.7 1015.5 0.0
26/05:00am 18.6 19.5 18.3 98 0.2 WSW 11 15 6 8 1015.7 1015.5 0.0
26/04:30am 18.8 19.7 18.5 98 0.2 WSW 11 15 6 8 1015.8 1015.6 0.0
26/04:00am 18.9 19.5 18.6 98 0.2 WSW 13 15 7 8 1015.6 1015.4 0.0
26/03:30am 19.1 20.2 18.8 98 0.2 SW 11 15 6 8 1015.8 1015.6 0.0
26/03:00am 19.2 19.9 18.9 98 0.2 WSW 13 15 7 8 1015.8 1015.6 0.0
26/02:30am 19.4 21.0 19.1 98 0.2 WSW 9 15 5 8 1016.0 1015.8 0.0
26/02:00am 19.5 20.3 19.0 97 0.3 SW 13 15 7 8 1016.3 1016.1 0.0
26/01:30am 19.4 20.6 19.1 98 0.2 WSW 11 15 6 8 1016.4 1016.2 0.0
26/01:00am 19.5 20.7 19.0 97 0.3 WSW 11 15 6 8 1016.6 1016.4 0.0
26/12:30am 19.6 20.4 19.1 97 0.3 SW 13 15 7 8 1016.6 1016.4 0.0
26/12:00am 19.8 21.1 19.3 97 0.3 SW 11 15 6 8 1016.7 1016.5 0.0

Other Formats:

Comma delimited format used in spreadsheet applications
http://www.bom.gov.au/fwo/IDQ60801/IDQ60801.94367.axf

JavaScript Object Notation format (JSON) in row-major order
http://www.bom.gov.au/fwo/IDQ60801/IDQ60801.94367.json